createdAt,value
2016-05-15T17:18:05.878Z,993.92
2016-05-15T17:19:06.067Z,993.88
2016-05-15T17:20:06.665Z,993.91
2016-05-15T17:21:05.917Z,993.88
2016-05-15T17:22:05.889Z,993.82
2016-05-15T17:23:05.891Z,993.83
2016-05-15T17:24:05.894Z,993.8
2016-05-15T17:25:05.897Z,993.79
2016-05-15T17:26:05.900Z,993.74
2016-05-15T17:27:05.933Z,993.73
2016-05-15T17:28:05.905Z,993.67
2016-05-15T17:29:05.908Z,993.56
2016-05-15T17:31:05.944Z,993.66
2016-05-15T17:32:05.916Z,993.67
2016-05-15T17:33:05.918Z,993.74
2016-05-15T17:34:05.921Z,993.65
2016-05-15T17:35:06.018Z,993.67
2016-05-15T17:36:05.942Z,993.69
2016-05-15T17:37:05.945Z,993.65
2016-05-15T17:39:06.168Z,993.68
2016-05-15T17:40:06.140Z,993.62
2016-05-15T17:41:05.940Z,993.65
2016-05-15T17:42:05.943Z,993.65
2016-05-15T17:43:05.946Z,993.66
2016-05-15T17:44:05.964Z,993.65
2016-05-15T17:45:05.951Z,993.6
2016-05-15T17:46:05.953Z,993.58
2016-05-15T17:47:05.956Z,993.62
2016-05-15T17:48:05.958Z,993.61
2016-05-15T17:50:05.964Z,993.65
2016-05-15T17:51:06.217Z,993.65
2016-05-15T17:52:05.969Z,993.63
2016-05-15T17:53:05.972Z,993.63
2016-05-15T17:54:05.991Z,993.63
2016-05-15T17:55:06.009Z,993.59
2016-05-15T17:56:05.980Z,993.58
2016-05-15T17:57:05.999Z,993.61
2016-05-15T17:58:06.188Z,993.62
2016-05-15T18:00:05.991Z,993.66
2016-05-15T18:01:05.994Z,993.66
2016-05-15T18:02:05.996Z,993.67
2016-05-15T18:03:05.999Z,993.64
2016-05-15T18:04:06.018Z,993.67
2016-05-15T18:05:06.004Z,993.68
2016-05-15T18:06:06.007Z,993.68
2016-05-15T18:07:06.010Z,993.72
2016-05-15T18:08:06.012Z,993.69
2016-05-15T18:09:06.046Z,993.72
2016-05-15T18:10:06.221Z,993.72
2016-05-15T18:11:06.021Z,993.7
2016-05-15T18:12:06.023Z,993.69
2016-05-15T18:13:06.010Z,993.74
2016-05-15T18:14:06.028Z,993.74
2016-05-15T18:15:06.031Z,993.76
2016-05-15T18:16:06.034Z,993.77
2016-05-15T18:17:06.037Z,993.76
2016-05-15T18:18:06.023Z,993.72
2016-05-15T18:19:06.026Z,993.75
2016-05-15T18:20:06.045Z,993.76
2016-05-15T18:21:06.031Z,993.74
2016-05-15T18:22:06.034Z,993.76
2016-05-15T18:23:06.069Z,993.77
2016-05-15T18:24:06.056Z,993.77
2016-05-15T18:25:06.370Z,993.79
2016-05-15T18:26:06.060Z,993.77
2016-05-15T18:28:06.253Z,993.8
2016-05-15T18:29:06.100Z,993.8
2016-05-15T18:30:06.040Z,993.78
2016-05-15T18:31:06.059Z,993.79
2016-05-15T18:32:06.046Z,993.77
2016-05-15T18:33:06.049Z,993.77
2016-05-15T18:34:06.066Z,993.74
2016-05-15T18:36:06.071Z,993.77
2016-05-15T18:37:06.060Z,993.72
2016-05-15T18:38:06.062Z,993.73
2016-05-15T18:39:06.065Z,993.71
2016-05-15T18:40:06.082Z,993.69
2016-05-15T18:41:06.071Z,993.65
2016-05-15T18:42:06.073Z,993.63
2016-05-15T18:43:06.387Z,993.69
2016-05-15T18:44:06.063Z,993.68
2016-05-15T18:45:06.065Z,993.64
2016-05-15T18:46:06.068Z,993.62
2016-05-15T18:47:06.071Z,993.64
2016-05-15T18:48:06.089Z,993.63
2016-05-15T18:49:06.075Z,993.64
2016-05-15T18:50:06.141Z,993.64
2016-05-15T18:51:06.097Z,993.64
2016-05-15T18:52:06.100Z,993.67
2016-05-15T18:53:06.274Z,993.7
2016-05-15T18:54:06.073Z,993.74
2016-05-15T18:55:06.076Z,993.77
2016-05-15T18:56:06.095Z,993.78
2016-05-15T18:57:06.081Z,993.77
2016-05-15T18:58:06.083Z,993.81
2016-05-15T19:00:06.090Z,993.85
2016-05-15T19:01:06.077Z,993.82
2016-05-15T19:02:06.127Z,993.84
2016-05-15T19:03:06.082Z,993.83
2016-05-15T19:04:06.085Z,993.83
2016-05-15T19:05:06.088Z,993.84
2016-05-15T19:06:06.106Z,993.82
2016-05-15T19:07:06.124Z,993.84
2016-05-15T19:08:06.314Z,993.86
2016-05-15T19:09:06.083Z,993.86
2016-05-15T19:10:06.085Z,993.83
2016-05-15T19:11:06.088Z,993.83
2016-05-15T19:12:06.091Z,993.83
2016-05-15T19:13:06.093Z,993.88
2016-05-15T19:14:06.112Z,993.84
2016-05-15T19:15:06.084Z,993.85
2016-05-15T19:16:06.086Z,993.84
2016-05-15T19:17:06.089Z,993.83
2016-05-15T19:18:06.107Z,993.84
2016-05-15T19:19:06.094Z,993.89
2016-05-15T19:20:06.097Z,993.95
2016-05-15T19:21:06.114Z,993.9
2016-05-15T19:22:06.102Z,993.92
2016-05-15T19:23:06.089Z,993.89
2016-05-15T19:24:06.108Z,993.92
2016-05-15T19:25:06.095Z,994.04
2016-05-15T19:26:06.097Z,994.17
2016-05-15T19:27:06.100Z,994.5
2016-05-15T19:28:06.119Z,994.59
2016-05-15T19:29:06.496Z,994.48
2016-05-15T19:30:06.092Z,994.51
2016-05-15T19:31:06.095Z,994.44
2016-05-15T19:32:06.097Z,994.45
2016-05-15T19:33:06.100Z,994.54
2016-05-15T19:34:06.102Z,994.46
2016-05-15T19:35:06.700Z,994.46
2016-05-15T19:36:06.124Z,994.51
2016-05-15T19:37:06.127Z,994.54
2016-05-15T19:38:06.098Z,994.58
2016-05-15T19:39:06.101Z,994.58
2016-05-15T19:40:06.104Z,994.58
2016-05-15T19:41:06.106Z,994.55
2016-05-15T19:42:06.094Z,994.61
2016-05-15T19:43:06.112Z,994.63
2016-05-15T19:44:06.301Z,994.58
2016-05-15T19:45:06.102Z,994.56
2016-05-15T19:46:06.105Z,994.55
2016-05-15T19:47:06.107Z,994.56
2016-05-15T19:48:06.109Z,994.54
2016-05-15T19:49:06.518Z,994.51
2016-05-15T19:50:06.209Z,994.51
2016-05-15T19:51:06.102Z,994.57
2016-05-15T19:52:06.104Z,994.52
2016-05-15T19:53:06.325Z,994.51
2016-05-15T19:54:06.110Z,994.49
2016-05-15T19:55:06.331Z,994.43
2016-05-15T19:56:06.131Z,994.51
2016-05-15T19:57:06.118Z,994.56
2016-05-15T19:58:06.105Z,994.57
2016-05-15T19:59:06.108Z,994.51
2016-05-15T20:00:06.110Z,994.51
2016-05-15T20:01:06.097Z,994.47
2016-05-15T20:02:06.116Z,994.51
2016-05-15T20:03:09.103Z,994.56
2016-05-15T20:04:06.137Z,994.58
2016-05-15T20:05:06.108Z,994.61
2016-05-15T20:06:06.111Z,994.65
2016-05-15T20:07:06.113Z,994.64
2016-05-15T20:08:06.101Z,994.66
2016-05-15T20:09:06.119Z,994.61
2016-05-15T20:11:06.110Z,994.62
2016-05-15T20:12:06.096Z,994.65
2016-05-15T20:13:06.098Z,994.64
2016-05-15T20:14:06.101Z,994.63
2016-05-15T20:15:06.105Z,994.69
2016-05-15T20:16:06.107Z,994.62
2016-05-15T20:17:06.312Z,994.61
2016-05-15T20:18:06.518Z,994.6
2016-05-15T20:19:06.302Z,994.57
2016-05-15T20:20:06.101Z,994.56
2016-05-15T20:21:06.104Z,994.56
2016-05-15T20:22:06.107Z,994.56
2016-05-15T20:23:06.110Z,994.57
2016-05-15T20:24:06.112Z,994.51
2016-05-15T20:25:06.115Z,994.55
2016-05-15T20:26:06.103Z,994.56
2016-05-15T20:27:06.105Z,994.57
2016-05-15T20:28:06.108Z,994.57
2016-05-15T20:29:06.094Z,994.52
2016-05-15T20:30:06.098Z,994.5
2016-05-15T20:31:06.101Z,994.48
2016-05-15T20:32:06.103Z,994.51
2016-05-15T20:33:06.105Z,994.49
2016-05-15T20:34:06.092Z,994.46
2016-05-15T20:35:06.095Z,994.49
2016-05-15T20:36:06.114Z,994.5
2016-05-15T20:37:06.100Z,994.46
2016-05-15T20:38:06.119Z,994.43
2016-05-15T20:39:06.325Z,994.46
2016-05-15T20:40:06.109Z,994.45
2016-05-15T20:41:06.330Z,994.46
2016-05-15T20:42:06.113Z,994.44
2016-05-15T20:43:06.102Z,994.42
2016-05-15T20:45:06.294Z,994.48
2016-05-15T20:46:06.125Z,994.49
2016-05-15T20:47:06.096Z,994.44
2016-05-15T20:48:06.098Z,994.49
2016-05-15T20:49:06.086Z,994.46
2016-05-15T20:50:06.449Z,994.45
2016-05-15T20:51:06.092Z,994.44
2016-05-15T20:52:06.110Z,994.45
2016-05-15T20:53:06.112Z,994.47
2016-05-15T20:54:06.100Z,994.47
2016-05-15T20:55:06.103Z,994.49
2016-05-15T20:56:06.105Z,994.49
2016-05-15T20:57:06.311Z,994.51
2016-05-15T20:58:06.094Z,994.52
2016-05-15T20:59:06.098Z,994.52
2016-05-15T21:00:06.101Z,994.58
2016-05-15T21:01:06.087Z,994.58
2016-05-15T21:02:06.090Z,994.58
2016-05-15T21:03:06.108Z,994.58
2016-05-15T21:04:06.298Z,994.58
2016-05-15T21:05:06.300Z,994.58
2016-05-15T21:06:06.085Z,994.58
2016-05-15T21:07:06.088Z,994.64
2016-05-15T21:08:06.106Z,994.64
2016-05-15T21:09:06.093Z,994.66
2016-05-15T21:10:06.096Z,994.67
2016-05-15T21:11:06.099Z,994.65
2016-05-15T21:12:06.116Z,994.64
2016-05-15T21:13:06.119Z,994.66
2016-05-15T21:14:06.090Z,994.61
2016-05-15T21:15:06.094Z,994.66
2016-05-15T21:16:06.113Z,994.68
2016-05-15T21:17:06.458Z,994.69
2016-05-15T21:18:06.085Z,994.68
2016-05-15T21:19:06.088Z,994.67
2016-05-15T21:20:06.091Z,994.68
2016-05-15T21:22:06.096Z,994.66
2016-05-15T21:23:06.099Z,994.66
2016-05-15T21:24:06.321Z,994.71
2016-05-15T21:25:06.089Z,994.67
